Hovedside
METAR-TAF:

METAR-TAF

Lufthavner :

Umeå lufthavn

Umeå, Sverige

breddegrad: 63-48N, lengdegrad: 020-17E, høyde over havet: 7 m

Gjeldene værobservasjon

Denne rapporten ble laget for 42 minutter siden, klokken 12:20 UTC
Vind 6 kt fra Sør-sørøst, skiftende mellom Øst og Sør-sørvest
Temperatur 18°C
Luftfuktighet 56%
Trykk 1011 hPa
Sikt 10 km eller mer
Spredte skyer i en høyde av 4000 ft

METAR: ESNU 151220Z 15006KT 100V200 9999 SCT040 18/09 Q1011

Tid: 15:02 (13:02 UTC)

Varsel

Denne rapporten ble laget for 1 time og 32 minutter siden, klokken 11:30 UTC
Varsel gyldig fra 15. klokken 12 UTC til 15. klokken 21 UTC
Vind 5 kt fra Sør-sørøst
Sikt 10 km eller mer
ingen skyer under 1500 m og ingen bygeskyer

TAF: ESNU 151130Z 1512/1521 15005KT CAVOK

Værobservasjoner og værvarsel for over 4000 flyplasser (METAR- og TAF-rapporter).

Tilgjengelige stasjoner er representert av de røde og gule prikkene på kartet.

Hold musepekeren over prikken for å se navnet på stasjonen.

Klikk så for å se værobservasjoner og -varsler.

For å forandre kartet kan du klikke på den grønne knappen med svart kryss for å zoome inn, på den grønne knappen med strek for å zoome ut, eller på de grønne pilene for å se tilstøtende kart.


METAR-TAF: